createdAt,value
2018-08-20T00:01:28.979Z,8.60
2018-08-20T00:04:00.328Z,8.73
2018-08-20T00:06:34.235Z,8.63
2018-08-20T00:09:03.351Z,9.17
2018-08-20T00:11:32.013Z,8.07
2018-08-20T00:14:00.704Z,8.90
2018-08-20T00:16:29.491Z,9.23
2018-08-20T00:18:58.199Z,9.43
2018-08-20T00:21:27.312Z,8.03
2018-08-20T00:23:56.179Z,8.87
2018-08-20T00:26:26.039Z,8.30
2018-08-20T00:28:55.126Z,8.63
2018-08-20T00:31:24.618Z,9.03
2018-08-20T00:33:53.860Z,7.83
2018-08-20T00:36:22.928Z,8.33
2018-08-20T00:38:51.667Z,8.17
2018-08-20T00:41:20.410Z,8.03
2018-08-20T00:43:49.222Z,8.20
2018-08-20T00:46:17.879Z,8.63
2018-08-20T00:48:47.043Z,7.77
2018-08-20T00:51:15.793Z,8.40
2018-08-20T00:53:44.708Z,9.07
2018-08-20T00:56:13.550Z,8.90
2018-08-20T00:58:42.502Z,8.10
2018-08-20T01:01:11.467Z,8.03
2018-08-20T01:03:40.461Z,8.33
2018-08-20T01:06:09.382Z,7.93
2018-08-20T01:08:38.114Z,7.80
2018-08-20T01:11:07.582Z,7.93
2018-08-20T01:13:36.363Z,7.53
2018-08-20T01:16:05.021Z,7.93
2018-08-20T01:18:33.824Z,8.13
2018-08-20T01:21:03.042Z,8.63
2018-08-20T01:23:31.928Z,8.50
2018-08-20T01:26:00.847Z,7.30
2018-08-20T01:28:29.604Z,8.73
2018-08-20T01:30:58.376Z,7.57
2018-08-20T01:33:27.295Z,7.77
2018-08-20T01:35:56.222Z,7.70
2018-08-20T01:38:25.210Z,8.60
2018-08-20T01:40:53.802Z,8.47
2018-08-20T01:43:22.652Z,8.53
2018-08-20T01:45:51.367Z,8.80
2018-08-20T01:48:20.249Z,9.87
2018-08-20T01:50:49.005Z,8.60
2018-08-20T01:53:17.875Z,7.10
2018-08-20T01:55:46.693Z,7.97
2018-08-20T01:58:15.345Z,8.37
2018-08-20T02:00:44.250Z,8.57
2018-08-20T02:03:13.039Z,7.60
2018-08-20T02:05:42.095Z,7.20
2018-08-20T02:08:11.035Z,7.70
2018-08-20T02:10:39.854Z,9.00
2018-08-20T02:13:08.564Z,8.77
2018-08-20T02:15:38.110Z,7.80
2018-08-20T02:18:08.288Z,8.03
2018-08-20T02:20:37.304Z,8.37
2018-08-20T02:23:06.354Z,7.80
2018-08-20T02:25:35.074Z,8.33
2018-08-20T02:28:04.131Z,7.77
2018-08-20T02:30:33.303Z,8.40
2018-08-20T02:33:02.546Z,8.73
2018-08-20T02:35:31.277Z,7.73
2018-08-20T02:38:00.142Z,8.23
2018-08-20T02:40:29.146Z,9.03
2018-08-20T02:42:57.966Z,8.73
2018-08-20T02:45:26.726Z,8.47
2018-08-20T02:47:55.374Z,8.93
2018-08-20T02:50:24.290Z,8.33
2018-08-20T02:52:53.356Z,7.00
2018-08-20T02:55:22.070Z,7.73
2018-08-20T02:57:50.750Z,7.83
2018-08-20T03:00:19.581Z,8.20
2018-08-20T03:02:48.472Z,8.33
2018-08-20T03:05:17.178Z,8.63
2018-08-20T03:07:46.070Z,8.30
2018-08-20T03:10:14.836Z,8.30
2018-08-20T03:12:43.530Z,8.93
2018-08-20T03:15:12.421Z,8.30
2018-08-20T03:17:41.255Z,7.77
2018-08-20T03:20:10.051Z,8.93
2018-08-20T03:22:38.975Z,8.43
2018-08-20T03:25:08.375Z,8.43
2018-08-20T03:27:37.426Z,7.50
2018-08-20T03:30:07.276Z,7.80
2018-08-20T03:32:36.251Z,8.50
2018-08-20T03:35:06.969Z,9.33
2018-08-20T03:37:35.863Z,9.40
2018-08-20T03:40:05.411Z,8.80
2018-08-20T03:42:34.144Z,10.10
2018-08-20T03:45:02.921Z,11.63
2018-08-20T03:47:32.027Z,9.67
2018-08-20T03:50:01.245Z,10.87
2018-08-20T03:52:30.402Z,9.60
2018-08-20T03:54:59.388Z,10.10
2018-08-20T03:57:28.120Z,9.43
2018-08-20T03:59:57.030Z,10.13
2018-08-20T04:02:26.145Z,9.03
2018-08-20T04:04:55.121Z,9.20
2018-08-20T04:07:23.985Z,9.03
2018-08-20T04:09:52.706Z,9.00
2018-08-20T04:12:21.338Z,10.33
2018-08-20T04:14:50.118Z,11.27
2018-08-20T04:17:19.170Z,13.07
2018-08-20T04:19:48.275Z,10.53
2018-08-20T04:22:17.359Z,9.20
2018-08-20T04:24:46.111Z,8.80
2018-08-20T04:27:14.946Z,10.60
2018-08-20T04:29:43.691Z,10.33
2018-08-20T04:32:12.505Z,8.07
2018-08-20T04:34:41.494Z,8.60
2018-08-20T04:37:10.703Z,10.00
2018-08-20T04:39:39.696Z,9.70
2018-08-20T04:42:08.448Z,12.87
2018-08-20T04:44:37.298Z,10.80
2018-08-20T04:47:06.302Z,19.93
2018-08-20T04:49:35.221Z,9.63
2018-08-20T04:52:04.122Z,9.67
2018-08-20T04:54:32.855Z,9.43
2018-08-20T04:57:01.939Z,11.43
2018-08-20T04:59:31.138Z,10.63
2018-08-20T05:02:00.411Z,11.00
2018-08-20T05:04:29.065Z,11.63
2018-08-20T05:06:57.803Z,10.93
2018-08-20T05:09:26.920Z,13.80
2018-08-20T05:11:55.710Z,12.07
2018-08-20T05:14:24.486Z,12.37
2018-08-20T05:16:53.679Z,12.63
2018-08-20T05:19:22.958Z,11.80
2018-08-20T05:21:51.986Z,11.97
2018-08-20T05:24:20.740Z,13.30
2018-08-20T05:26:49.513Z,13.83
2018-08-20T05:29:18.314Z,13.07
2018-08-20T05:31:47.370Z,14.00
2018-08-20T05:34:16.538Z,12.30
2018-08-20T05:36:45.487Z,13.17
2018-08-20T05:39:14.580Z,13.23
2018-08-20T05:41:43.265Z,13.43
2018-08-20T05:44:11.958Z,14.17
2018-08-20T05:46:40.861Z,13.00
2018-08-20T05:49:11.741Z,14.67
2018-08-20T05:51:40.876Z,14.70
2018-08-20T05:54:09.931Z,13.60
2018-08-20T05:56:38.966Z,14.87
2018-08-20T05:59:08.001Z,12.47
2018-08-20T06:01:36.895Z,12.83
2018-08-20T06:04:06.099Z,11.87
2018-08-20T06:06:34.923Z,11.63
2018-08-20T06:09:04.827Z,13.33
2018-08-20T06:11:33.508Z,11.73
2018-08-20T06:14:02.613Z,11.90
2018-08-20T06:16:31.584Z,11.47
2018-08-20T06:19:00.399Z,8.63
2018-08-20T06:21:29.384Z,9.13
2018-08-20T06:23:58.224Z,12.10
2018-08-20T06:26:27.182Z,12.87
2018-08-20T06:28:56.288Z,12.73
2018-08-20T06:31:25.446Z,16.17
2018-08-20T06:33:54.752Z,13.90
2018-08-20T06:36:23.799Z,13.90
2018-08-20T06:38:52.415Z,13.37
2018-08-20T06:41:21.116Z,11.70
2018-08-20T06:43:50.189Z,11.80
2018-08-20T06:46:19.053Z,12.13
2018-08-20T06:48:48.171Z,11.70
2018-08-20T06:51:17.269Z,10.90
2018-08-20T06:53:46.103Z,11.73
2018-08-20T06:56:14.785Z,11.73
2018-08-20T06:58:43.698Z,14.80
2018-08-20T07:01:12.869Z,10.13
2018-08-20T07:03:42.122Z,8.73
2018-08-20T07:06:10.891Z,8.40
2018-08-20T07:08:39.986Z,7.13
2018-08-20T07:11:08.769Z,8.17
2018-08-20T07:13:38.007Z,7.90
2018-08-20T07:16:08.224Z,7.08
2018-08-20T07:21:33.486Z,8.20
2018-08-20T07:24:02.352Z,9.25
2018-08-20T07:26:31.178Z,8.93
2018-08-20T07:29:00.328Z,8.85
2018-08-20T07:31:29.482Z,8.73
2018-08-20T07:33:58.330Z,9.33
2018-08-20T07:36:27.150Z,7.92
2018-08-20T07:38:56.068Z,10.35
2018-08-20T07:41:25.244Z,9.75
2018-08-20T07:43:54.091Z,8.83
2018-08-20T07:46:23.122Z,8.98
2018-08-20T07:48:52.107Z,10.20
2018-08-20T07:51:21.182Z,10.40
2018-08-20T07:53:50.214Z,10.00
2018-08-20T07:56:19.202Z,10.75
2018-08-20T07:58:48.296Z,10.32
2018-08-20T08:01:17.460Z,9.55
2018-08-20T08:03:46.254Z,10.05
2018-08-20T08:06:15.294Z,9.43
2018-08-20T08:08:43.986Z,7.72
2018-08-20T08:11:12.700Z,8.48
2018-08-20T08:13:41.446Z,9.03
2018-08-20T08:16:10.435Z,9.10
2018-08-20T08:18:39.390Z,9.53
2018-08-20T08:21:08.338Z,9.28
2018-08-20T08:23:37.392Z,9.93
2018-08-20T08:26:06.807Z,9.08
2018-08-20T08:28:35.739Z,10.23
2018-08-20T08:31:04.760Z,9.95
2018-08-20T08:33:33.593Z,8.90
2018-08-20T08:36:02.466Z,10.23
2018-08-20T08:38:31.339Z,9.15
2018-08-20T08:41:01.014Z,9.65
2018-08-20T08:43:29.839Z,9.15
2018-08-20T08:45:59.085Z,8.18
2018-08-20T08:48:28.030Z,7.47
2018-08-20T08:50:56.932Z,7.87
2018-08-20T08:53:25.945Z,7.00
2018-08-20T08:55:54.908Z,7.33
2018-08-20T08:58:23.814Z,6.65
2018-08-20T09:00:52.693Z,7.75
2018-08-20T09:03:21.723Z,7.42
2018-08-20T09:05:50.527Z,8.18
2018-08-20T09:08:19.456Z,7.20
2018-08-20T09:10:48.255Z,7.80
2018-08-20T09:13:17.037Z,6.67
2018-08-20T09:15:46.180Z,7.17
2018-08-20T09:18:15.010Z,6.28
2018-08-20T09:20:43.900Z,7.17
2018-08-20T09:23:12.604Z,6.40
2018-08-20T09:25:41.543Z,6.85
2018-08-20T09:28:10.475Z,6.40
2018-08-20T09:30:39.515Z,7.15
2018-08-20T09:33:09.348Z,6.80
2018-08-20T09:35:38.358Z,6.83
2018-08-20T09:38:07.339Z,8.65
2018-08-20T09:40:36.374Z,8.38
2018-08-20T09:43:05.546Z,7.17
2018-08-20T09:45:34.231Z,7.33
2018-08-20T09:48:03.036Z,7.25
2018-08-20T09:50:31.705Z,6.35
2018-08-20T09:53:00.475Z,5.95
2018-08-20T09:55:29.257Z,6.05
2018-08-20T09:57:58.250Z,7.28
2018-08-20T10:00:32.187Z,6.47
2018-08-20T10:03:01.142Z,7.30
2018-08-20T10:05:30.056Z,7.80
2018-08-20T10:07:58.918Z,8.35
2018-08-20T10:10:27.901Z,6.83
2018-08-20T10:12:57.051Z,7.35
2018-08-20T10:15:26.127Z,7.15
2018-08-20T10:17:55.267Z,6.05
2018-08-20T10:20:24.059Z,7.53
2018-08-20T10:22:52.976Z,5.75
2018-08-20T10:25:21.722Z,5.72
2018-08-20T10:27:50.346Z,7.60
2018-08-20T10:30:19.213Z,7.65
2018-08-20T10:32:48.090Z,7.65
2018-08-20T10:35:17.212Z,6.55
2018-08-20T10:37:46.375Z,6.92
2018-08-20T10:40:14.919Z,7.42
2018-08-20T10:42:43.907Z,7.08
2018-08-20T10:45:18.473Z,6.05
2018-08-20T10:47:48.657Z,7.40
2018-08-20T10:50:19.442Z,5.47
2018-08-20T10:52:49.691Z,6.17
2018-08-20T10:55:18.403Z,6.85
2018-08-20T10:57:47.338Z,6.45
2018-08-20T11:00:16.833Z,7.50
2018-08-20T11:02:45.830Z,7.50
2018-08-20T11:05:17.348Z,7.58
2018-08-20T11:07:46.418Z,6.15
2018-08-20T11:10:15.235Z,8.18
2018-08-20T11:12:44.389Z,6.92
2018-08-20T11:15:13.463Z,6.97
2018-08-20T11:17:42.538Z,8.15
2018-08-20T11:20:14.082Z,6.97
2018-08-20T11:22:43.108Z,7.00
2018-08-20T11:25:12.592Z,6.03
2018-08-20T11:27:41.611Z,6.10
2018-08-20T11:30:12.693Z,6.75
2018-08-20T11:32:41.732Z,6.50
2018-08-20T11:35:11.322Z,6.90
2018-08-20T11:37:40.558Z,6.17
2018-08-20T11:40:10.055Z,6.50
2018-08-20T11:42:39.893Z,7.03
2018-08-20T11:45:11.369Z,6.10
2018-08-20T11:47:40.333Z,7.17
2018-08-20T11:50:09.398Z,7.95
2018-08-20T11:52:39.219Z,7.10
2018-08-20T11:55:08.582Z,6.37
2018-08-20T11:57:37.558Z,6.80
2018-08-20T12:00:08.544Z,6.85
2018-08-20T12:02:37.319Z,8.83
2018-08-20T12:05:06.851Z,8.43
2018-08-20T12:07:36.178Z,8.23
2018-08-20T12:10:05.892Z,9.07
2018-08-20T12:12:34.713Z,9.80
2018-08-20T12:15:03.590Z,8.80
2018-08-20T12:17:32.447Z,9.20
2018-08-20T12:20:01.335Z,10.10
2018-08-20T12:22:30.275Z,11.17
2018-08-20T12:24:59.162Z,10.67
2018-08-20T12:27:28.015Z,10.00
2018-08-20T12:29:57.061Z,9.40
2018-08-20T12:32:25.928Z,8.50
2018-08-20T12:34:54.748Z,8.97
2018-08-20T12:37:23.562Z,8.57
2018-08-20T12:39:52.589Z,8.30
2018-08-20T12:42:21.439Z,8.10
2018-08-20T12:44:50.151Z,9.30
2018-08-20T12:47:19.191Z,8.37
2018-08-20T12:49:48.344Z,7.73
2018-08-20T12:52:17.404Z,9.23
2018-08-20T12:54:46.270Z,8.73
2018-08-20T12:57:15.174Z,9.83
2018-08-20T12:59:44.223Z,8.33
2018-08-20T13:02:13.027Z,9.73
2018-08-20T13:04:41.715Z,10.23
2018-08-20T13:07:10.519Z,11.18
2018-08-20T13:09:39.325Z,12.40
2018-08-20T13:12:08.392Z,10.25
2018-08-20T13:14:37.468Z,12.07
2018-08-20T13:17:06.564Z,9.38
2018-08-20T13:19:36.148Z,9.48
2018-08-20T13:22:05.628Z,8.60
2018-08-20T13:24:34.791Z,9.60
2018-08-20T13:27:03.719Z,9.68
2018-08-20T13:29:32.847Z,8.25
2018-08-20T13:32:01.659Z,9.48
2018-08-20T13:34:30.679Z,9.03
2018-08-20T13:37:00.086Z,8.43
2018-08-20T13:39:28.959Z,9.63
2018-08-20T13:41:57.740Z,11.00
2018-08-20T13:44:26.896Z,10.85
2018-08-20T13:46:55.709Z,10.00
2018-08-20T13:49:25.015Z,9.38
2018-08-20T13:51:54.255Z,8.63
2018-08-20T13:54:23.432Z,9.08
2018-08-20T13:56:52.470Z,10.03
2018-08-20T13:59:23.129Z,10.30
2018-08-20T14:01:53.833Z,9.80
2018-08-20T14:04:27.949Z,9.03
2018-08-20T14:06:59.852Z,9.15
2018-08-20T14:09:28.696Z,8.75
2018-08-20T14:11:57.674Z,8.73
2018-08-20T14:14:26.498Z,9.68
2018-08-20T14:16:55.236Z,8.45
2018-08-20T14:19:24.151Z,9.15
2018-08-20T14:21:53.414Z,9.00
2018-08-20T14:24:22.468Z,9.60
2018-08-20T14:26:51.323Z,8.55
2018-08-20T14:29:20.393Z,8.80
2018-08-20T14:31:49.662Z,8.10
2018-08-20T14:34:18.410Z,9.90
2018-08-20T14:36:47.519Z,8.85
2018-08-20T14:39:16.395Z,7.75
2018-08-20T14:41:45.246Z,9.85
2018-08-20T14:44:13.997Z,9.40
2018-08-20T14:46:42.782Z,8.53
2018-08-20T14:49:11.742Z,8.75
2018-08-20T14:51:40.427Z,8.68
2018-08-20T14:54:09.339Z,8.43
2018-08-20T14:56:38.055Z,9.25
2018-08-20T14:59:07.010Z,9.43
2018-08-20T15:01:36.054Z,9.25
2018-08-20T15:04:05.189Z,8.25
2018-08-20T15:06:34.824Z,9.75
2018-08-20T15:09:03.784Z,14.78
2018-08-20T15:11:32.358Z,14.50
2018-08-20T15:14:01.154Z,13.30
2018-08-20T15:16:30.274Z,8.88
2018-08-20T15:18:59.205Z,10.80
2018-08-20T15:21:28.007Z,8.58
2018-08-20T15:23:56.797Z,9.03
2018-08-20T15:26:25.746Z,11.00
2018-08-20T15:28:54.890Z,8.43
2018-08-20T15:31:23.799Z,9.00
2018-08-20T15:33:52.744Z,9.73
2018-08-20T15:36:21.638Z,9.25
2018-08-20T15:38:50.797Z,9.30
2018-08-20T15:41:19.540Z,8.23
2018-08-20T15:43:48.287Z,13.10
2018-08-20T15:46:17.314Z,10.80
2018-08-20T15:48:46.371Z,11.65
2018-08-20T15:51:15.113Z,8.25
2018-08-20T15:53:44.301Z,11.35
2018-08-20T15:56:13.175Z,10.25
2018-08-20T15:58:42.297Z,9.23
2018-08-20T16:01:11.024Z,9.60
2018-08-20T16:03:39.961Z,8.68
2018-08-20T16:06:09.133Z,7.58
2018-08-20T16:08:38.538Z,11.20
2018-08-20T16:11:07.444Z,9.53
2018-08-20T16:13:36.242Z,11.50
2018-08-20T16:16:04.933Z,10.32
2018-08-20T16:18:33.815Z,10.25
2018-08-20T16:21:02.995Z,10.25
2018-08-20T16:23:31.873Z,12.65
2018-08-20T16:26:00.752Z,10.05
2018-08-20T16:28:29.817Z,8.85
2018-08-20T16:30:58.659Z,10.18
2018-08-20T16:33:27.580Z,9.15
2018-08-20T16:35:56.723Z,8.90
2018-08-20T16:38:25.666Z,9.43
2018-08-20T16:40:54.826Z,9.73
2018-08-20T16:43:23.584Z,9.75
2018-08-20T16:45:52.437Z,10.28
2018-08-20T16:48:21.208Z,10.82
2018-08-20T16:50:50.213Z,9.03
2018-08-20T16:53:19.251Z,10.13
2018-08-20T16:55:48.556Z,10.72
2018-08-20T16:58:17.434Z,9.48
2018-08-20T17:00:46.644Z,9.03
2018-08-20T17:03:15.531Z,9.95
2018-08-20T17:05:46.829Z,10.05
2018-08-20T17:08:23.571Z,10.88
2018-08-20T17:10:53.229Z,13.30
2018-08-20T17:13:22.020Z,14.30
2018-08-20T17:15:50.689Z,14.45
2018-08-20T17:18:19.426Z,13.03
2018-08-20T17:20:48.430Z,12.95
2018-08-20T17:23:21.856Z,13.40
2018-08-20T17:25:51.615Z,12.85
2018-08-20T17:28:22.061Z,12.53
2018-08-20T17:30:55.756Z,12.60
2018-08-20T17:33:25.067Z,12.50
2018-08-20T17:35:53.807Z,12.88
2018-08-20T17:38:22.815Z,15.40
2018-08-20T17:40:51.602Z,16.63
2018-08-20T17:43:20.562Z,14.37
2018-08-20T17:45:49.339Z,17.20
2018-08-20T17:48:25.175Z,23.53
2018-08-20T17:50:53.939Z,22.43
2018-08-20T17:53:23.086Z,18.20
2018-08-20T17:55:52.076Z,17.93
2018-08-20T17:58:21.178Z,17.17
2018-08-20T18:00:53.175Z,16.77
2018-08-20T18:03:27.308Z,18.93
2018-08-20T18:05:58.635Z,16.40
2018-08-20T18:08:28.786Z,16.53
2018-08-20T18:10:57.951Z,16.50
2018-08-20T18:13:40.534Z,16.50
2018-08-20T18:16:10.973Z,15.00
2018-08-20T18:18:40.739Z,16.73
2018-08-20T18:21:09.500Z,15.40
2018-08-20T18:23:38.611Z,14.37
2018-08-20T18:26:07.533Z,14.90
2018-08-20T18:28:42.356Z,13.63
2018-08-20T18:31:17.123Z,13.40
2018-08-20T18:33:46.400Z,13.53
2018-08-20T18:36:17.542Z,12.73
2018-08-20T18:39:05.910Z,12.30
2018-08-20T18:42:16.807Z,12.23
2018-08-20T18:44:47.194Z,12.07
2018-08-20T18:47:17.783Z,12.67
2018-08-20T18:49:52.591Z,13.20
2018-08-20T18:52:22.346Z,13.33
2018-08-20T18:54:52.497Z,13.63
2018-08-20T18:57:23.979Z,13.50
2018-08-20T18:59:53.437Z,14.33
2018-08-20T19:02:57.557Z,14.20
2018-08-20T19:05:26.814Z,15.17
2018-08-20T19:07:55.750Z,15.03
2018-08-20T19:10:28.795Z,15.80
2018-08-20T19:12:58.052Z,15.67
2018-08-20T19:15:38.151Z,15.00
2018-08-20T19:18:08.507Z,17.97
2018-08-20T19:20:37.529Z,14.77
2018-08-20T19:23:06.663Z,13.40
2018-08-20T19:25:35.405Z,14.50
2018-08-20T19:28:13.776Z,14.10
2018-08-20T19:30:42.747Z,13.70
2018-08-20T19:33:16.579Z,14.60
2018-08-20T19:35:45.856Z,13.50
2018-08-20T19:38:14.517Z,14.77
2018-08-20T19:40:43.605Z,17.13
2018-08-20T19:43:12.438Z,14.77
2018-08-20T19:45:43.364Z,13.50
2018-08-20T19:48:13.178Z,13.23
2018-08-20T19:50:42.130Z,14.40
2018-08-20T19:53:16.267Z,12.80
2018-08-20T19:55:45.595Z,12.27
2018-08-20T19:58:20.579Z,12.97
2018-08-20T20:01:01.536Z,13.83
2018-08-20T20:03:32.057Z,14.30
2018-08-20T20:06:01.540Z,14.57
2018-08-20T20:08:30.574Z,13.63
2018-08-20T20:10:59.499Z,12.70
2018-08-20T20:13:28.688Z,13.53
2018-08-20T20:15:57.913Z,13.80
2018-08-20T20:18:27.060Z,12.17
2018-08-20T20:20:56.110Z,12.50
2018-08-20T20:23:25.016Z,13.90
2018-08-20T20:25:54.034Z,13.60
2018-08-20T20:28:22.808Z,13.93
2018-08-20T20:30:51.770Z,13.20
2018-08-20T20:33:20.583Z,14.37
2018-08-20T20:35:49.454Z,13.43
2018-08-20T20:38:18.533Z,13.70
2018-08-20T20:40:47.559Z,13.87
2018-08-20T20:43:21.043Z,12.30
2018-08-20T20:45:50.228Z,13.80
2018-08-20T20:48:19.318Z,13.47
2018-08-20T20:50:48.311Z,12.97
2018-08-20T20:53:17.242Z,12.37
2018-08-20T20:55:46.325Z,13.00
2018-08-20T20:58:20.235Z,12.33
2018-08-20T21:00:49.606Z,11.53
2018-08-20T21:03:18.883Z,12.57
2018-08-20T21:05:47.917Z,11.70
2018-08-20T21:08:16.947Z,12.37
2018-08-20T21:10:50.305Z,11.37
2018-08-20T21:13:20.623Z,10.77
2018-08-20T21:15:58.319Z,10.93
2018-08-20T21:18:27.531Z,11.67
2018-08-20T21:20:56.195Z,10.77
2018-08-20T21:23:25.242Z,11.37
2018-08-20T21:25:54.383Z,10.30
2018-08-20T21:28:25.645Z,12.00
2018-08-20T21:30:54.822Z,11.30
2018-08-20T21:33:24.014Z,11.00
2018-08-20T21:35:52.648Z,11.63
2018-08-20T21:38:21.433Z,11.47
2018-08-20T21:40:50.171Z,11.20
2018-08-20T21:43:19.070Z,10.30
2018-08-20T21:45:47.999Z,10.37
2018-08-20T21:48:16.998Z,10.30
2018-08-20T21:50:46.047Z,10.53
2018-08-20T21:53:15.015Z,10.30
2018-08-20T21:55:44.144Z,10.67
2018-08-20T21:58:12.858Z,10.57
2018-08-20T22:00:42.112Z,9.03
2018-08-20T22:03:11.606Z,9.07
2018-08-20T22:05:40.614Z,8.80
2018-08-20T22:08:09.627Z,8.80
2018-08-20T22:10:38.318Z,8.43
2018-08-20T22:13:07.235Z,9.43
2018-08-20T22:15:36.094Z,8.57
2018-08-20T22:18:05.194Z,8.80
2018-08-20T22:20:33.931Z,9.13
2018-08-20T22:23:11.993Z,9.27
2018-08-20T22:25:33.166Z,8.90
2018-08-20T22:28:02.254Z,8.33
2018-08-20T22:30:31.288Z,9.17
2018-08-20T22:33:00.225Z,9.10
2018-08-20T22:35:29.228Z,9.97
2018-08-20T22:37:58.280Z,9.17
2018-08-20T22:40:27.135Z,9.63
2018-08-20T22:42:57.594Z,9.13
2018-08-20T22:45:26.441Z,9.47
2018-08-20T22:47:55.531Z,9.00
2018-08-20T22:50:24.214Z,9.23
2018-08-20T22:52:53.232Z,9.90
2018-08-20T22:55:22.789Z,9.73
2018-08-20T22:58:09.650Z,9.77
2018-08-20T23:00:38.814Z,9.67
2018-08-20T23:03:08.247Z,9.77
2018-08-20T23:05:37.422Z,10.20
2018-08-20T23:08:11.550Z,9.53
2018-08-20T23:10:42.549Z,9.73
2018-08-20T23:13:11.252Z,10.30
2018-08-20T23:15:40.179Z,9.50
2018-08-20T23:18:09.351Z,9.50
2018-08-20T23:20:38.111Z,9.63
2018-08-20T23:23:06.952Z,9.97
2018-08-20T23:25:36.246Z,11.07
2018-08-20T23:28:05.295Z,9.67
2018-08-20T23:30:34.126Z,9.83
2018-08-20T23:33:03.309Z,9.40
2018-08-20T23:35:32.400Z,10.17
2018-08-20T23:38:01.320Z,10.90
2018-08-20T23:40:30.090Z,10.20
2018-08-20T23:42:59.162Z,10.23
2018-08-20T23:45:28.050Z,10.17
2018-08-20T23:47:56.729Z,9.83
2018-08-20T23:50:25.479Z,9.60
2018-08-20T23:52:54.158Z,9.80
2018-08-20T23:55:23.479Z,9.93
2018-08-20T23:57:52.532Z,9.33
